sensor_id;sensor_type;location;lat;lon;timestamp;P1;durP1;ratioP1;P2;durP2;ratioP2
10900;SDS011;5503;53.208;10.392;2023-05-02T00:01:29;4.50;;;1.97;;
10900;SDS011;5503;53.208;10.392;2023-05-02T00:04:03;4.82;;;2.33;;
10900;SDS011;5503;53.208;10.392;2023-05-02T00:06:30;5.65;;;2.30;;
10900;SDS011;5503;53.208;10.392;2023-05-02T00:08:57;5.38;;;2.10;;
10900;SDS011;5503;53.208;10.392;2023-05-02T00:11:24;5.03;;;2.10;;
10900;SDS011;5503;53.208;10.392;2023-05-02T00:13:51;5.77;;;2.10;;
10900;SDS011;5503;53.208;10.392;2023-05-02T00:16:21;6.53;;;2.10;;
10900;SDS011;5503;53.208;10.392;2023-05-02T00:18:48;4.95;;;2.00;;
10900;SDS011;5503;53.208;10.392;2023-05-02T00:21:15;11.80;;;2.15;;
10900;SDS011;5503;53.208;10.392;2023-05-02T00:23:44;5.97;;;2.42;;
10900;SDS011;5503;53.208;10.392;2023-05-02T00:26:11;5.40;;;2.50;;
10900;SDS011;5503;53.208;10.392;2023-05-02T00:28:38;5.55;;;2.70;;
10900;SDS011;5503;53.208;10.392;2023-05-02T00:31:05;5.47;;;2.42;;
10900;SDS011;5503;53.208;10.392;2023-05-02T00:33:34;5.65;;;2.83;;
10900;SDS011;5503;53.208;10.392;2023-05-02T00:36:02;5.40;;;2.58;;
10900;SDS011;5503;53.208;10.392;2023-05-02T00:38:38;4.73;;;2.33;;
10900;SDS011;5503;53.208;10.392;2023-05-02T00:41:05;6.30;;;2.55;;
10900;SDS011;5503;53.208;10.392;2023-05-02T00:43:32;5.45;;;2.28;;
10900;SDS011;5503;53.208;10.392;2023-05-02T00:46:00;5.22;;;2.67;;
10900;SDS011;5503;53.208;10.392;2023-05-02T00:48:28;5.20;;;2.65;;
10900;SDS011;5503;53.208;10.392;2023-05-02T00:50:57;5.87;;;3.03;;
10900;SDS011;5503;53.208;10.392;2023-05-02T00:53:24;6.13;;;2.80;;
10900;SDS011;5503;53.208;10.392;2023-05-02T00:55:52;7.40;;;2.80;;
10900;SDS011;5503;53.208;10.392;2023-05-02T00:58:19;6.50;;;3.00;;
10900;SDS011;5503;53.208;10.392;2023-05-02T01:00:50;9.30;;;3.28;;
10900;SDS011;5503;53.208;10.392;2023-05-02T01:03:34;6.10;;;3.10;;
10900;SDS011;5503;53.208;10.392;2023-05-02T01:06:10;6.63;;;3.40;;
10900;SDS011;5503;53.208;10.392;2023-05-02T01:09:01;6.25;;;3.08;;
10900;SDS011;5503;53.208;10.392;2023-05-02T01:11:38;7.05;;;4.03;;
10900;SDS011;5503;53.208;10.392;2023-05-02T01:14:11;6.50;;;3.55;;
10900;SDS011;5503;53.208;10.392;2023-05-02T01:16:40;7.80;;;4.67;;
10900;SDS011;5503;53.208;10.392;2023-05-02T01:19:11;8.88;;;3.95;;
10900;SDS011;5503;53.208;10.392;2023-05-02T01:21:48;7.75;;;4.20;;
10900;SDS011;5503;53.208;10.392;2023-05-02T01:24:18;7.05;;;3.78;;
10900;SDS011;5503;53.208;10.392;2023-05-02T01:26:52;7.30;;;4.43;;
10900;SDS011;5503;53.208;10.392;2023-05-02T01:29:30;8.63;;;4.03;;
10900;SDS011;5503;53.208;10.392;2023-05-02T01:31:59;7.65;;;4.28;;
10900;SDS011;5503;53.208;10.392;2023-05-02T01:34:28;10.07;;;4.35;;
10900;SDS011;5503;53.208;10.392;2023-05-02T01:37:00;11.52;;;5.35;;
10900;SDS011;5503;53.208;10.392;2023-05-02T01:39:29;10.50;;;5.28;;
10900;SDS011;5503;53.208;10.392;2023-05-02T01:41:56;10.07;;;5.30;;
10900;SDS011;5503;53.208;10.392;2023-05-02T01:44:24;10.02;;;4.45;;
10900;SDS011;5503;53.208;10.392;2023-05-02T01:46:57;9.63;;;5.60;;
10900;SDS011;5503;53.208;10.392;2023-05-02T01:49:25;11.20;;;5.65;;
10900;SDS011;5503;53.208;10.392;2023-05-02T01:51:54;12.85;;;5.18;;
10900;SDS011;5503;53.208;10.392;2023-05-02T01:54:26;9.20;;;5.17;;
10900;SDS011;5503;53.208;10.392;2023-05-02T01:56:53;12.43;;;5.43;;
10900;SDS011;5503;53.208;10.392;2023-05-02T01:59:21;11.45;;;5.65;;
10900;SDS011;5503;53.208;10.392;2023-05-02T02:01:51;11.48;;;4.85;;
10900;SDS011;5503;53.208;10.392;2023-05-02T02:04:22;10.88;;;5.68;;
10900;SDS011;5503;53.208;10.392;2023-05-02T02:06:52;9.77;;;5.50;;
10900;SDS011;5503;53.208;10.392;2023-05-02T02:09:28;10.88;;;5.00;;
10900;SDS011;5503;53.208;10.392;2023-05-02T02:11:56;11.13;;;5.50;;
10900;SDS011;5503;53.208;10.392;2023-05-02T02:14:32;12.30;;;5.70;;
10900;SDS011;5503;53.208;10.392;2023-05-02T02:17:02;12.90;;;6.47;;
10900;SDS011;5503;53.208;10.392;2023-05-02T02:19:34;11.90;;;5.37;;
10900;SDS011;5503;53.208;10.392;2023-05-02T02:22:02;12.00;;;4.97;;
10900;SDS011;5503;53.208;10.392;2023-05-02T02:24:33;10.02;;;5.18;;
10900;SDS011;5503;53.208;10.392;2023-05-02T02:27:02;15.55;;;5.22;;
10900;SDS011;5503;53.208;10.392;2023-05-02T02:29:29;9.68;;;4.82;;
10900;SDS011;5503;53.208;10.392;2023-05-02T02:31:57;11.25;;;5.80;;
10900;SDS011;5503;53.208;10.392;2023-05-02T02:34:25;12.80;;;6.38;;
10900;SDS011;5503;53.208;10.392;2023-05-02T02:36:54;10.73;;;6.13;;
10900;SDS011;5503;53.208;10.392;2023-05-02T02:39:31;13.20;;;6.03;;
10900;SDS011;5503;53.208;10.392;2023-05-02T02:42:13;11.45;;;5.53;;
10900;SDS011;5503;53.208;10.392;2023-05-02T02:44:46;10.63;;;5.90;;
10900;SDS011;5503;53.208;10.392;2023-05-02T02:47:24;12.68;;;6.15;;
10900;SDS011;5503;53.208;10.392;2023-05-02T02:50:02;11.55;;;5.70;;
10900;SDS011;5503;53.208;10.392;2023-05-02T02:52:49;11.65;;;6.13;;
10900;SDS011;5503;53.208;10.392;2023-05-02T02:55:20;10.85;;;5.93;;
10900;SDS011;5503;53.208;10.392;2023-05-02T02:57:56;12.17;;;5.63;;
10900;SDS011;5503;53.208;10.392;2023-05-02T03:00:27;12.38;;;6.10;;
10900;SDS011;5503;53.208;10.392;2023-05-02T03:02:57;13.10;;;5.82;;
10900;SDS011;5503;53.208;10.392;2023-05-02T03:05:26;11.00;;;6.20;;
10900;SDS011;5503;53.208;10.392;2023-05-02T03:07:55;12.65;;;6.18;;
10900;SDS011;5503;53.208;10.392;2023-05-02T03:10:24;14.03;;;6.07;;
10900;SDS011;5503;53.208;10.392;2023-05-02T03:12:52;15.40;;;6.28;;
10900;SDS011;5503;53.208;10.392;2023-05-02T03:15:25;11.75;;;5.53;;
10900;SDS011;5503;53.208;10.392;2023-05-02T03:18:13;13.18;;;6.25;;
10900;SDS011;5503;53.208;10.392;2023-05-02T03:20:41;10.73;;;5.72;;
10900;SDS011;5503;53.208;10.392;2023-05-02T03:23:08;12.73;;;5.67;;
10900;SDS011;5503;53.208;10.392;2023-05-02T03:25:36;13.50;;;5.72;;
10900;SDS011;5503;53.208;10.392;2023-05-02T03:28:03;11.75;;;5.93;;
10900;SDS011;5503;53.208;10.392;2023-05-02T03:30:30;11.43;;;5.72;;
10900;SDS011;5503;53.208;10.392;2023-05-02T03:32:57;11.18;;;5.72;;
10900;SDS011;5503;53.208;10.392;2023-05-02T03:35:25;9.03;;;4.60;;
10900;SDS011;5503;53.208;10.392;2023-05-02T03:37:54;9.60;;;4.93;;
10900;SDS011;5503;53.208;10.392;2023-05-02T03:40:21;10.57;;;4.68;;
10900;SDS011;5503;53.208;10.392;2023-05-02T03:42:48;7.60;;;3.95;;
10900;SDS011;5503;53.208;10.392;2023-05-02T03:45:15;6.40;;;3.70;;
10900;SDS011;5503;53.208;10.392;2023-05-02T03:47:43;8.13;;;3.60;;
10900;SDS011;5503;53.208;10.392;2023-05-02T03:50:10;8.48;;;3.80;;
10900;SDS011;5503;53.208;10.392;2023-05-02T03:52:37;5.70;;;2.80;;
10900;SDS011;5503;53.208;10.392;2023-05-02T03:55:14;6.93;;;3.60;;
10900;SDS011;5503;53.208;10.392;2023-05-02T03:57:42;7.40;;;3.25;;
10900;SDS011;5503;53.208;10.392;2023-05-02T04:00:09;5.87;;;3.23;;
10900;SDS011;5503;53.208;10.392;2023-05-02T04:02:37;5.55;;;3.13;;
10900;SDS011;5503;53.208;10.392;2023-05-02T04:05:07;5.32;;;3.03;;
10900;SDS011;5503;53.208;10.392;2023-05-02T04:07:40;5.35;;;3.17;;
10900;SDS011;5503;53.208;10.392;2023-05-02T04:10:08;7.72;;;2.70;;
10900;SDS011;5503;53.208;10.392;2023-05-02T04:12:42;4.60;;;2.13;;
10900;SDS011;5503;53.208;10.392;2023-05-02T04:15:09;5.43;;;3.05;;
10900;SDS011;5503;53.208;10.392;2023-05-02T04:17:36;5.35;;;2.80;;
10900;SDS011;5503;53.208;10.392;2023-05-02T04:20:09;5.35;;;2.83;;
10900;SDS011;5503;53.208;10.392;2023-05-02T04:22:36;5.50;;;2.83;;
10900;SDS011;5503;53.208;10.392;2023-05-02T04:25:05;8.40;;;2.63;;
10900;SDS011;5503;53.208;10.392;2023-05-02T04:27:35;6.93;;;2.47;;
10900;SDS011;5503;53.208;10.392;2023-05-02T04:30:04;6.65;;;2.88;;
10900;SDS011;5503;53.208;10.392;2023-05-02T04:32:34;6.40;;;2.90;;
10900;SDS011;5503;53.208;10.392;2023-05-02T04:35:02;6.18;;;3.38;;
10900;SDS011;5503;53.208;10.392;2023-05-02T04:37:29;3.92;;;2.03;;
10900;SDS011;5503;53.208;10.392;2023-05-02T04:39:56;7.80;;;2.03;;
10900;SDS011;5503;53.208;10.392;2023-05-02T04:42:24;5.82;;;2.88;;
10900;SDS011;5503;53.208;10.392;2023-05-02T04:44:51;5.88;;;2.90;;
10900;SDS011;5503;53.208;10.392;2023-05-02T04:47:22;5.70;;;2.42;;
10900;SDS011;5503;53.208;10.392;2023-05-02T04:49:49;5.28;;;2.65;;
10900;SDS011;5503;53.208;10.392;2023-05-02T04:52:17;5.35;;;2.50;;
10900;SDS011;5503;53.208;10.392;2023-05-02T04:54:44;5.20;;;3.08;;
10900;SDS011;5503;53.208;10.392;2023-05-02T04:57:11;5.07;;;2.85;;
10900;SDS011;5503;53.208;10.392;2023-05-02T04:59:39;5.90;;;2.70;;
10900;SDS011;5503;53.208;10.392;2023-05-02T05:02:06;11.93;;;2.55;;
10900;SDS011;5503;53.208;10.392;2023-05-02T05:04:39;6.70;;;2.88;;
10900;SDS011;5503;53.208;10.392;2023-05-02T05:07:11;8.93;;;3.25;;
10900;SDS011;5503;53.208;10.392;2023-05-02T05:09:38;6.85;;;1.90;;
10900;SDS011;5503;53.208;10.392;2023-05-02T05:12:05;10.27;;;2.35;;
10900;SDS011;5503;53.208;10.392;2023-05-02T05:14:33;4.53;;;2.42;;
10900;SDS011;5503;53.208;10.392;2023-05-02T05:17:00;7.35;;;2.33;;
10900;SDS011;5503;53.208;10.392;2023-05-02T05:19:27;6.10;;;2.90;;
10900;SDS011;5503;53.208;10.392;2023-05-02T05:21:56;8.82;;;2.30;;
10900;SDS011;5503;53.208;10.392;2023-05-02T05:24:23;4.72;;;2.08;;
10900;SDS011;5503;53.208;10.392;2023-05-02T05:26:50;4.45;;;2.50;;
10900;SDS011;5503;53.208;10.392;2023-05-02T05:29:17;5.47;;;2.28;;
10900;SDS011;5503;53.208;10.392;2023-05-02T05:31:44;6.57;;;2.67;;
10900;SDS011;5503;53.208;10.392;2023-05-02T05:34:12;9.80;;;2.67;;
10900;SDS011;5503;53.208;10.392;2023-05-02T05:36:39;6.95;;;2.33;;
10900;SDS011;5503;53.208;10.392;2023-05-02T05:39:12;6.47;;;2.65;;
10900;SDS011;5503;53.208;10.392;2023-05-02T05:41:46;10.52;;;2.75;;
10900;SDS011;5503;53.208;10.392;2023-05-02T05:44:13;4.15;;;2.38;;
10900;SDS011;5503;53.208;10.392;2023-05-02T05:46:46;5.43;;;2.40;;
10900;SDS011;5503;53.208;10.392;2023-05-02T05:49:19;6.57;;;2.42;;
10900;SDS011;5503;53.208;10.392;2023-05-02T05:51:46;8.85;;;2.92;;
10900;SDS011;5503;53.208;10.392;2023-05-02T05:54:17;4.65;;;2.03;;
10900;SDS011;5503;53.208;10.392;2023-05-02T05:56:45;7.45;;;2.72;;
10900;SDS011;5503;53.208;10.392;2023-05-02T05:59:12;3.80;;;1.55;;
10900;SDS011;5503;53.208;10.392;2023-05-02T06:01:39;5.35;;;2.25;;
10900;SDS011;5503;53.208;10.392;2023-05-02T06:04:06;9.43;;;2.58;;
10900;SDS011;5503;53.208;10.392;2023-05-02T06:06:34;5.72;;;1.63;;
10900;SDS011;5503;53.208;10.392;2023-05-02T06:09:01;5.07;;;2.40;;
10900;SDS011;5503;53.208;10.392;2023-05-02T06:11:30;4.07;;;1.85;;
10900;SDS011;5503;53.208;10.392;2023-05-02T06:14:01;4.88;;;2.47;;
10900;SDS011;5503;53.208;10.392;2023-05-02T06:16:29;5.55;;;2.60;;
10900;SDS011;5503;53.208;10.392;2023-05-02T06:18:56;4.65;;;2.00;;
10900;SDS011;5503;53.208;10.392;2023-05-02T06:21:26;5.45;;;2.00;;
10900;SDS011;5503;53.208;10.392;2023-05-02T06:23:53;4.75;;;2.40;;
10900;SDS011;5503;53.208;10.392;2023-05-02T06:26:20;6.82;;;2.75;;
10900;SDS011;5503;53.208;10.392;2023-05-02T06:28:49;5.60;;;1.85;;
10900;SDS011;5503;53.208;10.392;2023-05-02T06:31:17;5.07;;;2.35;;
10900;SDS011;5503;53.208;10.392;2023-05-02T06:33:46;4.30;;;1.67;;
10900;SDS011;5503;53.208;10.392;2023-05-02T06:36:15;13.45;;;2.00;;
10900;SDS011;5503;53.208;10.392;2023-05-02T06:38:43;4.18;;;1.73;;
10900;SDS011;5503;53.208;10.392;2023-05-02T06:41:13;6.72;;;2.35;;
10900;SDS011;5503;53.208;10.392;2023-05-02T06:43:40;4.32;;;2.05;;
10900;SDS011;5503;53.208;10.392;2023-05-02T06:46:11;5.03;;;2.13;;
10900;SDS011;5503;53.208;10.392;2023-05-02T06:48:41;6.05;;;1.90;;
10900;SDS011;5503;53.208;10.392;2023-05-02T06:51:14;4.72;;;2.45;;
10900;SDS011;5503;53.208;10.392;2023-05-02T06:53:43;3.45;;;1.67;;
10900;SDS011;5503;53.208;10.392;2023-05-02T06:56:10;11.07;;;2.90;;
10900;SDS011;5503;53.208;10.392;2023-05-02T06:58:37;3.92;;;2.03;;
10900;SDS011;5503;53.208;10.392;2023-05-02T07:01:07;7.55;;;2.28;;
10900;SDS011;5503;53.208;10.392;2023-05-02T07:03:36;4.18;;;2.20;;
10900;SDS011;5503;53.208;10.392;2023-05-02T07:06:06;6.65;;;2.92;;
10900;SDS011;5503;53.208;10.392;2023-05-02T07:08:39;3.95;;;1.88;;
10900;SDS011;5503;53.208;10.392;2023-05-02T07:11:10;4.20;;;2.63;;
10900;SDS011;5503;53.208;10.392;2023-05-02T07:13:37;4.68;;;2.35;;
10900;SDS011;5503;53.208;10.392;2023-05-02T07:16:05;5.88;;;2.08;;
10900;SDS011;5503;53.208;10.392;2023-05-02T07:18:33;4.57;;;2.40;;
10900;SDS011;5503;53.208;10.392;2023-05-02T07:21:02;11.63;;;3.22;;
10900;SDS011;5503;53.208;10.392;2023-05-02T07:23:30;4.45;;;2.10;;
10900;SDS011;5503;53.208;10.392;2023-05-02T07:25:58;4.22;;;1.92;;
10900;SDS011;5503;53.208;10.392;2023-05-02T07:28:25;3.58;;;2.03;;
10900;SDS011;5503;53.208;10.392;2023-05-02T07:30:55;3.75;;;2.30;;
10900;SDS011;5503;53.208;10.392;2023-05-02T07:33:22;3.53;;;1.77;;
10900;SDS011;5503;53.208;10.392;2023-05-02T07:35:52;6.38;;;2.15;;
10900;SDS011;5503;53.208;10.392;2023-05-02T07:38:21;6.47;;;1.77;;
10900;SDS011;5503;53.208;10.392;2023-05-02T07:40:48;4.35;;;1.90;;
10900;SDS011;5503;53.208;10.392;2023-05-02T07:43:15;4.97;;;2.25;;
10900;SDS011;5503;53.208;10.392;2023-05-02T07:45:42;14.98;;;2.90;;
10900;SDS011;5503;53.208;10.392;2023-05-02T07:48:09;7.20;;;2.53;;
10900;SDS011;5503;53.208;10.392;2023-05-02T07:50:40;7.15;;;2.20;;
10900;SDS011;5503;53.208;10.392;2023-05-02T07:53:07;5.35;;;2.38;;
10900;SDS011;5503;53.208;10.392;2023-05-02T07:55:36;4.88;;;2.05;;
10900;SDS011;5503;53.208;10.392;2023-05-02T07:58:06;4.95;;;2.03;;
10900;SDS011;5503;53.208;10.392;2023-05-02T08:00:36;4.15;;;2.00;;
10900;SDS011;5503;53.208;10.392;2023-05-02T08:03:05;3.50;;;1.83;;
10900;SDS011;5503;53.208;10.392;2023-05-02T08:05:33;6.10;;;2.70;;
10900;SDS011;5503;53.208;10.392;2023-05-02T08:08:00;4.43;;;2.13;;
10900;SDS011;5503;53.208;10.392;2023-05-02T08:10:28;4.07;;;2.00;;
10900;SDS011;5503;53.208;10.392;2023-05-02T08:12:58;4.60;;;1.77;;
10900;SDS011;5503;53.208;10.392;2023-05-02T08:15:25;4.97;;;2.15;;
10900;SDS011;5503;53.208;10.392;2023-05-02T08:17:53;4.10;;;1.80;;
10900;SDS011;5503;53.208;10.392;2023-05-02T08:20:20;4.85;;;2.03;;
10900;SDS011;5503;53.208;10.392;2023-05-02T08:22:47;3.95;;;2.08;;
10900;SDS011;5503;53.208;10.392;2023-05-02T08:25:15;3.60;;;1.65;;
10900;SDS011;5503;53.208;10.392;2023-05-02T08:27:42;6.05;;;2.15;;
10900;SDS011;5503;53.208;10.392;2023-05-02T08:30:12;3.83;;;1.63;;
10900;SDS011;5503;53.208;10.392;2023-05-02T08:32:41;3.65;;;1.90;;
10900;SDS011;5503;53.208;10.392;2023-05-02T08:35:09;5.03;;;1.98;;
10900;SDS011;5503;53.208;10.392;2023-05-02T08:37:39;4.18;;;1.98;;
10900;SDS011;5503;53.208;10.392;2023-05-02T08:40:11;4.25;;;1.65;;
10900;SDS011;5503;53.208;10.392;2023-05-02T08:42:40;3.65;;;1.83;;
10900;SDS011;5503;53.208;10.392;2023-05-02T08:45:13;3.40;;;1.73;;
10900;SDS011;5503;53.208;10.392;2023-05-02T08:47:40;3.45;;;1.60;;
10900;SDS011;5503;53.208;10.392;2023-05-02T08:50:11;3.70;;;1.48;;
10900;SDS011;5503;53.208;10.392;2023-05-02T08:52:41;4.25;;;2.15;;
10900;SDS011;5503;53.208;10.392;2023-05-02T08:55:12;3.85;;;1.50;;
10900;SDS011;5503;53.208;10.392;2023-05-02T08:57:39;2.92;;;1.35;;
10900;SDS011;5503;53.208;10.392;2023-05-02T09:00:09;3.08;;;1.38;;
10900;SDS011;5503;53.208;10.392;2023-05-02T09:02:42;4.75;;;1.73;;
10900;SDS011;5503;53.208;10.392;2023-05-02T09:05:18;4.55;;;1.77;;
10900;SDS011;5503;53.208;10.392;2023-05-02T09:07:49;4.13;;;1.73;;
10900;SDS011;5503;53.208;10.392;2023-05-02T09:10:20;6.00;;;1.80;;
10900;SDS011;5503;53.208;10.392;2023-05-02T09:12:47;3.63;;;1.58;;
10900;SDS011;5503;53.208;10.392;2023-05-02T09:15:15;3.10;;;1.55;;
10900;SDS011;5503;53.208;10.392;2023-05-02T09:17:44;4.95;;;1.50;;
10900;SDS011;5503;53.208;10.392;2023-05-02T09:20:13;4.57;;;2.00;;
10900;SDS011;5503;53.208;10.392;2023-05-02T09:22:46;4.97;;;2.15;;
10900;SDS011;5503;53.208;10.392;2023-05-02T09:25:15;3.97;;;1.70;;
10900;SDS011;5503;53.208;10.392;2023-05-02T09:27:47;7.20;;;1.77;;
10900;SDS011;5503;53.208;10.392;2023-05-02T09:30:20;3.80;;;1.52;;
10900;SDS011;5503;53.208;10.392;2023-05-02T09:32:53;4.50;;;1.65;;
10900;SDS011;5503;53.208;10.392;2023-05-02T09:35:20;4.80;;;1.67;;
10900;SDS011;5503;53.208;10.392;2023-05-02T09:37:50;4.63;;;2.10;;
10900;SDS011;5503;53.208;10.392;2023-05-02T09:40:18;3.38;;;1.70;;
10900;SDS011;5503;53.208;10.392;2023-05-02T09:42:45;3.85;;;1.58;;
10900;SDS011;5503;53.208;10.392;2023-05-02T09:45:19;3.88;;;1.70;;
10900;SDS011;5503;53.208;10.392;2023-05-02T09:47:47;4.23;;;1.70;;
10900;SDS011;5503;53.208;10.392;2023-05-02T09:50:35;3.63;;;1.48;;
10900;SDS011;5503;53.208;10.392;2023-05-02T09:53:04;3.28;;;1.55;;
10900;SDS011;5503;53.208;10.392;2023-05-02T09:55:41;5.43;;;2.22;;
10900;SDS011;5503;53.208;10.392;2023-05-02T09:58:16;4.40;;;1.40;;
10900;SDS011;5503;53.208;10.392;2023-05-02T10:00:50;4.07;;;1.40;;
10900;SDS011;5503;53.208;10.392;2023-05-02T10:03:17;4.10;;;1.85;;
10900;SDS011;5503;53.208;10.392;2023-05-02T10:05:46;5.45;;;1.65;;
10900;SDS011;5503;53.208;10.392;2023-05-02T10:08:13;3.55;;;1.30;;
10900;SDS011;5503;53.208;10.392;2023-05-02T10:10:44;4.55;;;1.90;;
10900;SDS011;5503;53.208;10.392;2023-05-02T10:13:18;4.60;;;1.73;;
10900;SDS011;5503;53.208;10.392;2023-05-02T10:15:48;4.35;;;1.95;;
10900;SDS011;5503;53.208;10.392;2023-05-02T10:18:20;4.57;;;1.90;;
10900;SDS011;5503;53.208;10.392;2023-05-02T10:20:54;5.50;;;1.80;;
10900;SDS011;5503;53.208;10.392;2023-05-02T10:23:24;5.63;;;1.75;;
10900;SDS011;5503;53.208;10.392;2023-05-02T10:25:56;3.70;;;1.60;;
10900;SDS011;5503;53.208;10.392;2023-05-02T10:28:25;6.80;;;1.20;;
10900;SDS011;5503;53.208;10.392;2023-05-02T10:30:54;3.40;;;1.60;;
10900;SDS011;5503;53.208;10.392;2023-05-02T10:33:23;4.13;;;1.90;;
10900;SDS011;5503;53.208;10.392;2023-05-02T10:35:50;3.55;;;1.63;;
10900;SDS011;5503;53.208;10.392;2023-05-02T10:38:20;3.33;;;1.50;;
10900;SDS011;5503;53.208;10.392;2023-05-02T10:40:50;2.92;;;1.20;;
10900;SDS011;5503;53.208;10.392;2023-05-02T10:43:30;4.65;;;1.65;;
10900;SDS011;5503;53.208;10.392;2023-05-02T10:45:59;4.57;;;1.38;;
10900;SDS011;5503;53.208;10.392;2023-05-02T10:48:27;5.70;;;1.63;;
10900;SDS011;5503;53.208;10.392;2023-05-02T10:50:55;3.40;;;1.40;;
10900;SDS011;5503;53.208;10.392;2023-05-02T10:53:27;3.67;;;1.60;;
10900;SDS011;5503;53.208;10.392;2023-05-02T10:56:10;4.07;;;1.42;;
10900;SDS011;5503;53.208;10.392;2023-05-02T10:58:39;3.53;;;1.30;;
10900;SDS011;5503;53.208;10.392;2023-05-02T11:04:04;4.70;;;1.40;;
10900;SDS011;5503;53.208;10.392;2023-05-02T11:06:36;3.83;;;1.30;;
10900;SDS011;5503;53.208;10.392;2023-05-02T11:09:42;3.22;;;1.30;;
10900;SDS011;5503;53.208;10.392;2023-05-02T11:12:12;8.27;;;1.20;;
10900;SDS011;5503;53.208;10.392;2023-05-02T11:15:11;3.90;;;1.40;;
10900;SDS011;5503;53.208;10.392;2023-05-02T11:17:57;3.13;;;1.50;;
10900;SDS011;5503;53.208;10.392;2023-05-02T11:20:25;3.53;;;1.45;;
10900;SDS011;5503;53.208;10.392;2023-05-02T11:22:56;3.05;;;1.20;;
10900;SDS011;5503;53.208;10.392;2023-05-02T11:25:48;2.95;;;1.05;;
10900;SDS011;5503;53.208;10.392;2023-05-02T11:34:39;5.03;;;1.30;;
10900;SDS011;5503;53.208;10.392;2023-05-02T11:37:11;3.08;;;1.27;;
10900;SDS011;5503;53.208;10.392;2023-05-02T11:39:45;3.28;;;1.48;;
10900;SDS011;5503;53.208;10.392;2023-05-02T11:42:30;4.68;;;1.90;;
10900;SDS011;5503;53.208;10.392;2023-05-02T11:45:02;4.27;;;1.47;;
10900;SDS011;5503;53.208;10.392;2023-05-02T11:47:33;3.10;;;1.40;;
10900;SDS011;5503;53.208;10.392;2023-05-02T11:50:03;5.78;;;1.42;;
10900;SDS011;5503;53.208;10.392;2023-05-02T11:52:35;4.28;;;1.10;;
10900;SDS011;5503;53.208;10.392;2023-05-02T11:55:09;2.97;;;1.30;;
10900;SDS011;5503;53.208;10.392;2023-05-02T11:57:48;3.23;;;1.50;;
10900;SDS011;5503;53.208;10.392;2023-05-02T12:00:19;2.60;;;1.23;;
10900;SDS011;5503;53.208;10.392;2023-05-02T12:02:54;3.58;;;1.40;;
10900;SDS011;5503;53.208;10.392;2023-05-02T12:05:27;5.13;;;1.15;;
10900;SDS011;5503;53.208;10.392;2023-05-02T12:07:55;3.30;;;1.30;;
10900;SDS011;5503;53.208;10.392;2023-05-02T12:10:24;3.83;;;1.50;;
10900;SDS011;5503;53.208;10.392;2023-05-02T12:13:04;2.80;;;1.20;;
10900;SDS011;5503;53.208;10.392;2023-05-02T12:15:31;3.00;;;1.15;;
10900;SDS011;5503;53.208;10.392;2023-05-02T12:17:58;3.15;;;1.30;;
10900;SDS011;5503;53.208;10.392;2023-05-02T12:20:26;2.80;;;1.10;;
10900;SDS011;5503;53.208;10.392;2023-05-02T12:22:53;3.63;;;1.30;;
10900;SDS011;5503;53.208;10.392;2023-05-02T12:25:21;3.10;;;1.30;;
10900;SDS011;5503;53.208;10.392;2023-05-02T12:27:57;3.28;;;1.25;;
10900;SDS011;5503;53.208;10.392;2023-05-02T12:30:28;3.85;;;1.30;;
10900;SDS011;5503;53.208;10.392;2023-05-02T12:32:55;3.20;;;1.30;;
10900;SDS011;5503;53.208;10.392;2023-05-02T12:35:23;3.10;;;1.33;;
10900;SDS011;5503;53.208;10.392;2023-05-02T12:37:51;2.90;;;1.00;;
10900;SDS011;5503;53.208;10.392;2023-05-02T12:40:21;2.70;;;1.10;;
10900;SDS011;5503;53.208;10.392;2023-05-02T12:45:42;4.65;;;1.42;;
10900;SDS011;5503;53.208;10.392;2023-05-02T12:48:24;3.10;;;1.30;;
10900;SDS011;5503;53.208;10.392;2023-05-02T12:50:53;3.63;;;1.20;;
10900;SDS011;5503;53.208;10.392;2023-05-02T12:53:39;3.10;;;1.38;;
10900;SDS011;5503;53.208;10.392;2023-05-02T12:56:13;2.80;;;1.10;;
10900;SDS011;5503;53.208;10.392;2023-05-02T12:58:41;2.75;;;1.00;;
10900;SDS011;5503;53.208;10.392;2023-05-02T13:01:14;4.03;;;1.40;;
10900;SDS011;5503;53.208;10.392;2023-05-02T13:03:41;3.60;;;1.38;;
10900;SDS011;5503;53.208;10.392;2023-05-02T13:06:08;2.90;;;1.10;;
10900;SDS011;5503;53.208;10.392;2023-05-02T13:08:35;3.17;;;1.30;;
10900;SDS011;5503;53.208;10.392;2023-05-02T13:11:06;3.67;;;1.30;;
10900;SDS011;5503;53.208;10.392;2023-05-02T13:13:38;5.60;;;1.90;;
10900;SDS011;5503;53.208;10.392;2023-05-02T13:16:06;3.17;;;1.20;;
10900;SDS011;5503;53.208;10.392;2023-05-02T13:18:39;3.10;;;1.30;;
10900;SDS011;5503;53.208;10.392;2023-05-02T13:21:09;5.00;;;1.20;;
10900;SDS011;5503;53.208;10.392;2023-05-02T13:23:36;4.13;;;1.60;;
10900;SDS011;5503;53.208;10.392;2023-05-02T13:26:05;2.60;;;1.00;;
10900;SDS011;5503;53.208;10.392;2023-05-02T13:28:32;3.25;;;1.35;;
10900;SDS011;5503;53.208;10.392;2023-05-02T13:31:01;2.90;;;1.20;;
10900;SDS011;5503;53.208;10.392;2023-05-02T13:33:28;3.13;;;1.20;;
10900;SDS011;5503;53.208;10.392;2023-05-02T13:35:58;3.05;;;1.20;;
10900;SDS011;5503;53.208;10.392;2023-05-02T13:38:28;2.80;;;1.23;;
10900;SDS011;5503;53.208;10.392;2023-05-02T13:40:57;3.10;;;1.30;;
10900;SDS011;5503;53.208;10.392;2023-05-02T13:43:23;4.05;;;1.55;;
10900;SDS011;5503;53.208;10.392;2023-05-02T13:45:51;3.33;;;1.10;;
10900;SDS011;5503;53.208;10.392;2023-05-02T13:48:30;4.13;;;1.20;;
10900;SDS011;5503;53.208;10.392;2023-05-02T13:51:14;3.10;;;1.40;;
10900;SDS011;5503;53.208;10.392;2023-05-02T13:53:44;3.90;;;1.50;;
10900;SDS011;5503;53.208;10.392;2023-05-02T13:56:11;3.30;;;1.58;;
10900;SDS011;5503;53.208;10.392;2023-05-02T13:58:38;3.53;;;1.50;;
10900;SDS011;5503;53.208;10.392;2023-05-02T14:01:08;3.60;;;1.27;;
10900;SDS011;5503;53.208;10.392;2023-05-02T14:03:40;3.10;;;1.30;;
10900;SDS011;5503;53.208;10.392;2023-05-02T14:06:08;3.40;;;1.30;;
10900;SDS011;5503;53.208;10.392;2023-05-02T14:08:43;4.35;;;1.30;;
10900;SDS011;5503;53.208;10.392;2023-05-02T14:11:11;3.42;;;1.25;;
10900;SDS011;5503;53.208;10.392;2023-05-02T14:13:44;2.97;;;1.30;;
10900;SDS011;5503;53.208;10.392;2023-05-02T14:16:13;3.57;;;1.37;;
10900;SDS011;5503;53.208;10.392;2023-05-02T14:18:41;3.22;;;1.30;;
10900;SDS011;5503;53.208;10.392;2023-05-02T14:21:10;3.35;;;1.42;;
10900;SDS011;5503;53.208;10.392;2023-05-02T14:23:42;3.17;;;1.48;;
10900;SDS011;5503;53.208;10.392;2023-05-02T14:26:11;4.55;;;1.08;;
10900;SDS011;5503;53.208;10.392;2023-05-02T14:28:39;3.23;;;1.30;;
10900;SDS011;5503;53.208;10.392;2023-05-02T14:31:06;3.20;;;1.40;;
10900;SDS011;5503;53.208;10.392;2023-05-02T14:33:35;3.10;;;1.30;;
10900;SDS011;5503;53.208;10.392;2023-05-02T14:36:12;3.78;;;1.45;;
10900;SDS011;5503;53.208;10.392;2023-05-02T14:38:43;3.08;;;1.30;;
10900;SDS011;5503;53.208;10.392;2023-05-02T14:41:13;3.03;;;1.30;;
10900;SDS011;5503;53.208;10.392;2023-05-02T14:43:43;3.95;;;1.10;;
10900;SDS011;5503;53.208;10.392;2023-05-02T14:46:13;2.67;;;1.00;;
10900;SDS011;5503;53.208;10.392;2023-05-02T14:48:42;3.35;;;1.30;;
10900;SDS011;5503;53.208;10.392;2023-05-02T14:51:13;3.20;;;1.50;;
10900;SDS011;5503;53.208;10.392;2023-05-02T14:53:47;3.72;;;1.30;;
10900;SDS011;5503;53.208;10.392;2023-05-02T14:56:22;3.25;;;1.27;;
10900;SDS011;5503;53.208;10.392;2023-05-02T14:58:53;5.20;;;1.30;;
10900;SDS011;5503;53.208;10.392;2023-05-02T15:01:21;3.42;;;1.60;;
10900;SDS011;5503;53.208;10.392;2023-05-02T15:03:48;4.57;;;1.70;;
10900;SDS011;5503;53.208;10.392;2023-05-02T15:06:16;3.17;;;1.33;;
10900;SDS011;5503;53.208;10.392;2023-05-02T15:08:44;3.00;;;1.40;;
10900;SDS011;5503;53.208;10.392;2023-05-02T15:11:19;3.38;;;1.58;;
10900;SDS011;5503;53.208;10.392;2023-05-02T15:13:46;4.30;;;1.42;;
10900;SDS011;5503;53.208;10.392;2023-05-02T15:16:14;3.75;;;1.35;;